createdAt,value
2022-11-08T00:00:14.110Z,100212.75
2022-11-08T00:02:40.965Z,100213.78
2022-11-08T00:05:29.195Z,100206.84
2022-11-08T00:08:14.563Z,100208.53
2022-11-08T00:11:00.086Z,100206.00
2022-11-08T00:13:45.446Z,100207.50
2022-11-08T00:16:12.257Z,100211.56
2022-11-08T00:18:38.937Z,100203.97
2022-11-08T00:21:05.636Z,100211.56
2022-11-08T00:23:32.492Z,100205.16
2022-11-08T00:25:59.166Z,100210.06
2022-11-08T00:28:25.836Z,100211.06
2022-11-08T00:30:54.838Z,100214.44
2022-11-08T00:33:31.368Z,100208.03
2022-11-08T00:36:06.036Z,100207.16
2022-11-08T00:38:35.219Z,100211.06
2022-11-08T00:41:04.111Z,100199.41
2022-11-08T00:43:30.760Z,100202.13
2022-11-08T00:45:57.309Z,100203.16
2022-11-08T00:48:24.062Z,100203.78
2022-11-08T00:50:50.733Z,100201.44
2022-11-08T00:53:18.098Z,100208.34
2022-11-08T00:55:44.814Z,100206.84
2022-11-08T00:58:11.514Z,100207.00
2022-11-08T01:00:38.922Z,100200.97
2022-11-08T01:03:21.718Z,100206.34
2022-11-08T01:05:52.767Z,100198.25
2022-11-08T01:08:23.349Z,100208.88
2022-11-08T01:10:52.832Z,100203.66
2022-11-08T01:13:19.939Z,100206.34
2022-11-08T01:15:47.692Z,100212.41
2022-11-08T01:18:17.089Z,100200.97
2022-11-08T01:20:48.180Z,100198.25
2022-11-08T01:23:17.386Z,100197.38
2022-11-08T01:25:48.982Z,100201.97
2022-11-08T01:28:17.141Z,100201.78
2022-11-08T01:30:50.053Z,100210.72
2022-11-08T01:33:16.800Z,100199.25
2022-11-08T01:35:46.194Z,100205.13
2022-11-08T01:38:13.514Z,100194.34
2022-11-08T01:40:48.827Z,100205.66
2022-11-08T01:43:39.400Z,100192.50
2022-11-08T01:46:18.369Z,100192.66
2022-11-08T01:48:55.882Z,100195.03
2022-11-08T01:51:39.599Z,100201.28
2022-11-08T01:54:20.791Z,100193.69
2022-11-08T01:56:50.544Z,100193.84
2022-11-08T01:59:19.681Z,100196.56
2022-11-08T02:01:50.570Z,100190.50
2022-11-08T02:04:17.664Z,100188.63
2022-11-08T02:06:44.784Z,100188.28
2022-11-08T02:09:18.483Z,100182.72
2022-11-08T02:11:48.851Z,100192.69
2022-11-08T02:14:24.381Z,100191.66
2022-11-08T02:16:51.153Z,100183.41
2022-11-08T02:19:45.696Z,100189.81
2022-11-08T02:22:45.975Z,100192.19
2022-11-08T02:25:16.688Z,100184.41
2022-11-08T02:27:43.444Z,100180.88
2022-11-08T02:30:10.913Z,100189.28
2022-11-08T02:32:42.724Z,100184.75
2022-11-08T02:35:19.319Z,100187.63
2022-11-08T02:37:46.997Z,100190.47
2022-11-08T02:40:16.501Z,100181.19
2022-11-08T02:42:43.194Z,100180.34
2022-11-08T02:45:10.592Z,100180.72
2022-11-08T02:47:38.496Z,100173.13
2022-11-08T02:50:08.515Z,100177.16
2022-11-08T02:52:35.235Z,100185.09
2022-11-08T02:55:01.838Z,100175.63
2022-11-08T02:57:28.549Z,100179.34
2022-11-08T02:59:55.122Z,100183.25
2022-11-08T03:02:21.881Z,100188.44
2022-11-08T03:04:48.579Z,100191.19
2022-11-08T03:07:15.284Z,100188.31
2022-11-08T03:09:41.901Z,100187.47
2022-11-08T03:12:08.587Z,100186.94
2022-11-08T03:14:35.266Z,100185.09
2022-11-08T03:17:01.947Z,100194.53
2022-11-08T03:19:28.517Z,100196.91
2022-11-08T03:21:55.107Z,100187.78
2022-11-08T03:24:21.672Z,100193.34
2022-11-08T03:26:48.323Z,100189.28
2022-11-08T03:29:14.984Z,100177.34
2022-11-08T03:31:41.590Z,100185.75
2022-11-08T03:34:10.784Z,100182.06
2022-11-08T03:36:39.976Z,100186.78
2022-11-08T03:39:13.421Z,100176.31
2022-11-08T03:41:40.131Z,100183.25
2022-11-08T03:44:09.813Z,100182.22
2022-11-08T03:46:37.784Z,100172.09
2022-11-08T03:49:04.880Z,100182.38
2022-11-08T03:51:31.667Z,100182.38
2022-11-08T03:53:58.292Z,100178.81
2022-11-08T03:56:25.081Z,100184.41
2022-11-08T03:58:51.666Z,100181.72
2022-11-08T04:01:18.559Z,100187.28
2022-11-08T04:03:45.319Z,100182.03
2022-11-08T04:06:12.199Z,100183.06
2022-11-08T04:08:38.928Z,100177.66
2022-11-08T04:11:24.384Z,100174.81
2022-11-08T04:14:10.026Z,100168.41
2022-11-08T04:16:36.717Z,100168.88
2022-11-08T04:19:25.555Z,100177.47
2022-11-08T04:21:55.877Z,100173.78
2022-11-08T04:24:24.425Z,100179.19
2022-11-08T04:26:51.131Z,100175.31
2022-11-08T04:29:17.943Z,100170.91
2022-11-08T04:31:44.656Z,100161.97
2022-11-08T04:34:11.526Z,100163.50
2022-11-08T04:36:38.509Z,100155.56
2022-11-08T04:39:05.362Z,100164.50
2022-11-08T04:41:32.162Z,100162.41
2022-11-08T04:43:59.353Z,100156.50
2022-11-08T04:46:29.259Z,100152.28
2022-11-08T04:48:59.916Z,100157.84
2022-11-08T04:51:33.649Z,100161.00
2022-11-08T04:54:07.797Z,100157.63
2022-11-08T04:56:34.849Z,100157.25
2022-11-08T04:59:01.881Z,100162.31
2022-11-08T05:01:32.658Z,100162.78
2022-11-08T05:03:59.487Z,100155.19
2022-11-08T05:06:33.160Z,100164.75
2022-11-08T05:09:00.754Z,100166.31
2022-11-08T05:11:30.378Z,100166.66
2022-11-08T05:13:58.229Z,100159.22
2022-11-08T05:16:32.169Z,100163.09
2022-11-08T05:19:00.288Z,100157.38
2022-11-08T05:21:46.404Z,100156.19
2022-11-08T05:24:17.564Z,100149.66
2022-11-08T05:26:48.159Z,100155.63
2022-11-08T05:29:17.353Z,100151.78
2022-11-08T05:31:44.578Z,100150.75
2022-11-08T05:34:11.224Z,100153.41
2022-11-08T05:36:38.022Z,100152.41
2022-11-08T05:39:04.903Z,100148.34
2022-11-08T05:41:31.494Z,100158.81
2022-11-08T05:43:58.154Z,100151.38
2022-11-08T05:46:25.430Z,100158.97
2022-11-08T05:48:52.422Z,100155.94
2022-11-08T05:51:20.700Z,100155.34
2022-11-08T05:53:48.559Z,100156.47
2022-11-08T05:56:18.709Z,100154.13
2022-11-08T05:58:45.787Z,100150.44
2022-11-08T06:01:17.813Z,100154.13
2022-11-08T06:03:46.756Z,100148.03
2022-11-08T06:14:20.023Z,100163.56
2022-11-08T06:30:12.060Z,100153.91
2022-11-08T06:38:09.015Z,100154.06
2022-11-08T06:40:39.304Z,100160.69
2022-11-08T06:43:09.050Z,100152.25
2022-11-08T06:45:37.904Z,100151.78
2022-11-08T06:48:07.649Z,100159.56
2022-11-08T08:00:45.873Z,100150.50
2022-11-08T08:30:18.480Z,100141.56
2022-11-08T10:02:42.714Z,100098.53
2022-11-08T10:05:18.184Z,100098.66
2022-11-08T10:11:56.915Z,100080.69
2022-11-08T10:15:05.969Z,100074.47
2022-11-08T10:18:17.246Z,100080.72
2022-11-08T10:21:10.931Z,100077.31
2022-11-08T10:23:44.933Z,100068.31
2022-11-08T10:26:33.909Z,100073.81
2022-11-08T10:29:19.559Z,100074.53
2022-11-08T10:31:56.747Z,100069.44
2022-11-08T10:34:38.992Z,100058.03
2022-11-08T10:37:11.751Z,100062.81
2022-11-08T10:39:53.464Z,100048.56
2022-11-08T10:42:46.089Z,100044.50
2022-11-08T10:45:13.335Z,100048.72
2022-11-08T10:47:43.868Z,100034.59
2022-11-08T10:50:20.136Z,100041.59
2022-11-08T10:53:05.481Z,100033.38
2022-11-08T10:55:38.467Z,100025.38
2022-11-08T10:58:41.005Z,100009.75
2022-11-08T11:01:25.597Z,100006.06
2022-11-08T11:03:53.794Z,100004.31
2022-11-08T11:06:32.818Z,99997.13
2022-11-08T11:09:22.379Z,99985.25
2022-11-08T11:12:08.820Z,99990.66
2022-11-08T11:14:36.999Z,99988.13
2022-11-08T11:17:18.239Z,99987.44
2022-11-08T11:19:55.868Z,99994.69
2022-11-08T11:22:35.512Z,99993.25
2022-11-08T11:53:56.207Z,99952.78
2022-11-08T13:06:58.007Z,99877.19
2022-11-08T13:10:32.448Z,99868.59
2022-11-08T13:13:31.883Z,99872.69
2022-11-08T13:16:18.776Z,99868.44
2022-11-08T13:18:56.653Z,99858.28
2022-11-08T13:21:25.972Z,99868.31
2022-11-08T13:24:09.856Z,99878.50
2022-11-08T13:26:42.600Z,99871.03
2022-11-08T13:29:18.237Z,99863.72
2022-11-08T13:32:54.237Z,99851.81
2022-11-08T13:35:55.744Z,99868.31
2022-11-08T13:39:15.613Z,99849.91
2022-11-08T13:42:29.646Z,99849.22
2022-11-08T13:45:14.293Z,99858.50
2022-11-08T13:47:41.474Z,99845.28
2022-11-08T13:50:33.812Z,99853.63
2022-11-08T13:53:23.475Z,99850.28
2022-11-08T13:56:07.532Z,99853.81
2022-11-08T13:58:45.663Z,99838.84
2022-11-08T14:01:18.366Z,99847.09
2022-11-08T14:03:48.036Z,99842.50
2022-11-08T14:06:36.310Z,99845.78
2022-11-08T14:09:46.218Z,99843.63
2022-11-08T14:12:55.297Z,99832.53
2022-11-08T14:15:39.562Z,99833.69
2022-11-08T14:18:26.243Z,99822.97
2022-11-08T14:20:57.538Z,99831.69
2022-11-08T14:23:33.908Z,99829.47
2022-11-08T14:26:12.116Z,99824.66
2022-11-08T14:28:46.542Z,99817.75
2022-11-08T14:31:33.282Z,99811.22
2022-11-08T14:34:01.952Z,99820.00
2022-11-08T14:36:31.997Z,99811.06
2022-11-08T14:39:17.579Z,99826.66
2022-11-08T14:41:57.813Z,99824.91
2022-11-08T14:44:26.006Z,99832.47
2022-11-08T14:46:54.247Z,99827.34
2022-11-08T14:49:36.442Z,99820.81
2022-11-08T14:52:38.465Z,99808.03
2022-11-08T14:55:14.069Z,99811.28
2022-11-08T14:57:46.989Z,99811.94
2022-11-08T15:00:20.275Z,99810.25
2022-11-08T15:02:54.697Z,99805.69
2022-11-08T15:05:58.623Z,99799.25
2022-11-08T15:08:40.344Z,99804.22
2022-11-08T15:11:15.094Z,99803.25
2022-11-08T15:13:52.720Z,99798.91
2022-11-08T15:16:33.990Z,99812.69
2022-11-08T15:19:52.008Z,99794.78
2022-11-08T15:22:37.649Z,99796.34
2022-11-08T15:25:35.445Z,99793.06
2022-11-08T15:28:22.853Z,99783.25
2022-11-08T15:31:03.220Z,99789.91
2022-11-08T15:33:36.992Z,99780.19
2022-11-08T15:36:16.298Z,99771.34
2022-11-08T15:38:49.258Z,99771.34
2022-11-08T15:41:39.175Z,99773.78
2022-11-08T15:44:24.361Z,99774.34
2022-11-08T15:46:54.226Z,99769.28
2022-11-08T15:49:28.884Z,99760.75
2022-11-08T15:51:58.808Z,99771.09
2022-11-08T15:54:27.179Z,99764.97
2022-11-08T15:56:56.689Z,99759.19
2022-11-08T15:59:30.121Z,99759.00
2022-11-08T16:02:01.729Z,99765.16
2022-11-08T16:04:29.673Z,99757.31
2022-11-08T16:07:00.379Z,99748.09
2022-11-08T16:09:27.139Z,99756.78
2022-11-08T16:11:54.391Z,99750.16
2022-11-08T16:14:24.853Z,99747.97
2022-11-08T16:16:52.002Z,99749.75
2022-11-08T16:19:25.757Z,99755.59
2022-11-08T16:21:52.890Z,99751.91
2022-11-08T16:24:20.053Z,99748.63
2022-11-08T16:26:49.028Z,99742.22
2022-11-08T16:29:32.108Z,99746.41
2022-11-08T16:31:58.879Z,99748.09
2022-11-08T16:34:28.701Z,99751.47
2022-11-08T16:36:55.819Z,99737.56
2022-11-08T16:39:26.238Z,99760.84
2022-11-08T16:41:53.353Z,99755.19
2022-11-08T16:44:23.293Z,99753.88
2022-11-08T16:46:53.594Z,99759.56
2022-11-08T16:49:24.902Z,99756.94
2022-11-08T16:51:51.540Z,99758.88
2022-11-08T16:54:28.220Z,99757.09
2022-11-08T16:57:20.832Z,99750.84
2022-11-08T16:59:43.485Z,99753.19
2022-11-08T17:02:30.512Z,99759.78
2022-11-08T17:04:57.427Z,99753.28
2022-11-08T17:07:26.684Z,99741.97
2022-11-08T17:09:53.915Z,99742.47
2022-11-08T17:12:21.727Z,99755.19
2022-11-08T17:14:48.516Z,99757.72
2022-11-08T17:17:16.109Z,99754.44
2022-11-08T17:19:42.739Z,99762.47
2022-11-08T17:22:09.520Z,99769.16
2022-11-08T17:24:38.922Z,99764.88
2022-11-08T17:27:05.715Z,99768.81
2022-11-08T17:29:32.330Z,99772.09
2022-11-08T17:31:58.946Z,99776.66
2022-11-08T17:34:25.756Z,99778.91
2022-11-08T17:36:52.935Z,99780.13
2022-11-08T17:39:19.584Z,99782.88
2022-11-08T17:41:46.485Z,99785.84
2022-11-08T17:44:16.574Z,99787.81
2022-11-08T17:46:43.675Z,99792.66
2022-11-08T17:49:10.312Z,99784.84
2022-11-08T17:51:37.029Z,99790.16
2022-11-08T17:54:03.995Z,99791.47
2022-11-08T17:56:30.977Z,99796.22
2022-11-08T17:58:57.762Z,99791.72
2022-11-08T18:01:24.854Z,99793.59
2022-11-08T18:03:51.873Z,99791.66
2022-11-08T18:06:24.200Z,99797.63
2022-11-08T18:08:57.142Z,99790.72
2022-11-08T18:11:28.133Z,99791.72
2022-11-08T18:27:26.113Z,99788.66
2022-11-08T19:02:17.618Z,99776.59
2022-11-08T19:12:50.686Z,99783.16
2022-11-08T19:15:17.680Z,99784.47
2022-11-08T19:17:48.427Z,99783.47
2022-11-08T19:20:18.239Z,99786.06
2022-11-08T19:57:50.077Z,99805.09
2022-11-08T20:19:33.052Z,99816.16
2022-11-08T20:46:17.367Z,99808.88
2022-11-08T21:10:40.801Z,99820.16
2022-11-08T21:13:03.785Z,99817.41
2022-11-08T21:15:30.636Z,99815.75
2022-11-08T21:28:49.159Z,99820.94
2022-11-08T21:31:17.257Z,99808.81
2022-11-08T21:44:32.554Z,99819.69
2022-11-08T21:46:59.443Z,99812.97
2022-11-08T21:57:31.379Z,99818.78
2022-11-08T21:59:58.101Z,99807.81
2022-11-08T22:02:25.779Z,99808.63
2022-11-08T22:04:52.519Z,99810.41
2022-11-08T22:07:19.185Z,99811.22
2022-11-08T22:09:47.033Z,99806.16
2022-11-08T22:12:15.620Z,99813.28
2022-11-08T22:14:42.495Z,99807.59
2022-11-08T22:17:09.323Z,99811.91
2022-11-08T22:27:38.832Z,99806.97
2022-11-08T22:30:11.545Z,99801.13
2022-11-08T22:32:42.172Z,99801.41
2022-11-08T22:35:09.280Z,99801.28
2022-11-08T22:37:35.937Z,99798.41
2022-11-08T22:40:02.993Z,99805.59
2022-11-08T22:42:32.766Z,99812.00
2022-11-08T22:44:59.438Z,99806.31
2022-11-08T22:47:26.185Z,99805.19
2022-11-08T22:49:52.989Z,99812.16
2022-11-08T22:52:19.668Z,99807.25
2022-11-08T22:54:48.729Z,99806.38
2022-11-08T22:57:15.617Z,99802.78
2022-11-08T22:59:44.755Z,99810.59
2022-11-08T23:02:11.422Z,99802.56
2022-11-08T23:04:38.178Z,99809.25
2022-11-08T23:07:04.982Z,99803.63
2022-11-08T23:09:37.989Z,99807.69
2022-11-08T23:12:23.458Z,99802.91
2022-11-08T23:15:08.891Z,99798.72
2022-11-08T23:17:35.532Z,99789.13
2022-11-08T23:20:20.704Z,99799.47
2022-11-08T23:23:24.572Z,99805.44
2022-11-08T23:26:00.241Z,99802.72
2022-11-08T23:28:45.538Z,99810.88
2022-11-08T23:31:32.254Z,99806.84
2022-11-08T23:33:59.213Z,99803.09
2022-11-08T23:36:29.542Z,99809.91
2022-11-08T23:38:57.828Z,99808.31
2022-11-08T23:41:43.409Z,99808.66
2022-11-08T23:44:25.295Z,99805.50
2022-11-08T23:46:58.795Z,99807.72
2022-11-08T23:49:26.843Z,99809.75
2022-11-08T23:51:54.343Z,99816.09
2022-11-08T23:54:21.399Z,99807.72
2022-11-08T23:56:48.715Z,99808.00
2022-11-08T23:59:16.373Z,99812.44
